Time;durP1;ratioP1;P1;durP2;ratioP2;P2;SDS_P1;SDS_P2;PMS_P1;PMS_P2;Temp;Humidity;BMP_temperature;BMP_pressure;BME280_temperature;BME280_humidity;BME280_pressure;Samples;Min_cycle;Max_cycle;Signal;HPM_P1;HPM_P2
2022/12/22 03:25:53;;;;;;;;;;;;;;;;;;2120396;28;19943;-89
2022/12/22 03:26:53;;;;;;;;;;;;;;;;;;2116944;28;20002;-88
2022/12/22 03:27:53;;;;;;;;;;;;;;;;;;2106345;28;19919;-88
2022/12/22 03:28:54;;;;;;;;;;;;;;;;;;2097496;28;19920;-87
2022/12/22 03:29:54;;;;;;;;;;;;;;;;;;2106241;28;19995;-88
2022/12/22 03:30:57;;;;;;;;;;;;;;;;;;2106208;28;20472;-88
2022/12/22 03:31:57;;;;;;;;;;;;;;;;;;2107205;28;19951;-88
2022/12/22 03:32:57;;;;;;;;;;;;;;;;;;2115402;28;19900;-88
2022/12/22 03:33:58;;;;;;;;;;;;;;;;;;2116714;28;19908;-88
2022/12/22 03:34:58;;;;;;;;;;;;;;;;;;2107188;28;19913;-88
2022/12/22 03:35:59;;;;;;;;;;;;;;;;;;2103772;28;20360;-88
2022/12/22 03:36:59;;;;;;;;;;;;;;;;;;2112363;28;19912;-88
2022/12/22 03:38:02;;;;;;;;;;;;;;;;;;2107310;28;19966;-87
2022/12/22 03:39:02;;;;;;;;;;;;;;;;;;2097915;28;19955;-88
2022/12/22 03:40:03;;;;;;;;;;;;;;;;;;2105722;28;20001;-88
2022/12/22 03:41:03;;;;;;;;;;;;;;;;;;2097567;28;19920;-87
2022/12/22 03:47:19;;;;;;;;;;;;;;;;;;1403348;28;10001844;-88
2022/12/22 03:48:19;;;;;;;;;;;;;;;;;;2105559;28;19924;-87
2022/12/22 03:49:21;;;;;;;;;;;;;;;;;;2105731;28;20398;-86
2022/12/22 03:50:22;;;;;;;;;;;;;;;;;;2097750;28;19974;-85
2022/12/22 03:51:22;;;;;;;;;;;;;;;;;;2097627;28;19916;-87
2022/12/22 03:52:22;;;;;;;;;;;;;;;;;;2097520;28;19986;-87
2022/12/22 03:53:22;;;;;;;;;;;;;;;;;;2105903;28;20021;-86
2022/12/22 03:54:24;;;;;;;;;;;;;;;;;;2105854;28;20520;-87
2022/12/22 03:55:24;;;;;;;;;;;;;;;;;;2105969;28;19919;-87
2022/12/22 03:56:24;;;;;;;;;;;;;;;;;;2105988;28;19912;-87
2022/12/22 03:57:24;;;;;;;;;;;;;;;;;;2097537;28;19964;-87
2022/12/22 03:58:25;;;;;;;;;;;;;;;;;;2097458;28;19931;-86
2022/12/22 03:59:25;;;;;;;;;;;;;;;;;;2105821;28;19919;-88
2022/12/22 04:00:25;;;;;;;;;;;;;;;;;;2114713;28;20010;-88
2022/12/22 04:01:26;;;;;;;;;;;;;;;;;;2105969;28;19930;-89
2022/12/22 04:02:26;;;;;;;;;;;;;;;;;;2097285;28;19947;-88
2022/12/22 04:03:26;;;;;;;;;;;;;;;;;;2105879;28;20315;-86
2022/12/22 04:04:27;;;;;;;;;;;;;;;;;;2105481;28;20318;-89
2022/12/22 04:05:27;;;;;;;;;;;;;;;;;;2097370;28;19913;-87
2022/12/22 04:06:27;;;;;;;;;;;;;;;;;;2105539;28;20330;-88
2022/12/22 04:07:27;;;;;;;;;;;;;;;;;;2105693;28;19918;-88
2022/12/22 04:08:28;;;;;;;;;;;;;;;;;;2105787;28;19918;-89
2022/12/22 04:09:28;;;;;;;;;;;;;;;;;;2115162;28;19912;-88
2022/12/22 04:13:06;;;;;;;;;;;;;;;;;;2114824;28;19912;-88
2022/12/22 04:14:06;;;;;;;;;;;;;;;;;;2115021;28;20003;-88
2022/12/22 04:15:07;;;;;;;;;;;;;;;;;;2105752;28;20413;-88
2022/12/22 04:16:07;;;;;;;;;;;;;;;;;;2097187;28;19923;-89
2022/12/22 04:17:08;;;;;;;;;;;;;;;;;;1754327;28;10001228;-88
2022/12/22 04:18:08;;;;;;;;;;;;;;;;;;2097451;28;19920;-88
2022/12/22 04:19:09;;;;;;;;;;;;;;;;;;2097223;28;19912;-88
2022/12/22 04:20:09;;;;;;;;;;;;;;;;;;2105476;28;20603;-88
2022/12/22 04:21:09;;;;;;;;;;;;;;;;;;2103623;28;19919;-87
2022/12/22 04:22:10;;;;;;;;;;;;;;;;;;2105493;28;20427;-88
2022/12/22 04:23:10;;;;;;;;;;;;;;;;;;2097192;28;19917;-88
2022/12/22 04:24:11;;;;;;;;;;;;;;;;;;2105853;28;20338;-88
2022/12/22 04:25:11;;;;;;;;;;;;;;;;;;2114572;28;19912;-86
2022/12/22 04:26:12;;;;;;;;;;;;;;;;;;2114909;28;19930;-88
2022/12/22 04:27:12;;;;;;;;;;;;;;;;;;2105427;28;19912;-89
2022/12/22 04:28:12;;;;;;;;;;;;;;;;;;2097250;28;20007;-89
2022/12/22 04:29:13;;;;;;;;;;;;;;;;;;2105420;28;20003;-88
2022/12/22 04:30:13;;;;;;;;;;;;;;;;;;2105544;28;20311;-88
2022/12/22 04:31:13;;;;;;;;;;;;;;;;;;2097059;28;19912;-88
2022/12/22 04:32:14;;;;;;;;;;;;;;;;;;1747240;28;10001487;-87
2022/12/22 04:33:14;;;;;;;;;;;;;;;;;;2105867;28;19982;-87
2022/12/22 04:34:14;;;;;;;;;;;;;;;;;;2105398;28;19912;-86
2022/12/22 04:35:15;;;;;;;;;;;;;;;;;;2108416;28;19912;-87
2022/12/22 04:36:15;;;;;;;;;;;;;;;;;;2114444;28;19912;-88
2022/12/22 04:37:15;;;;;;;;;;;;;;;;;;2105448;28;20387;-88
2022/12/22 04:38:16;;;;;;;;;;;;;;;;;;2105355;28;19912;-88
2022/12/22 04:39:16;;;;;;;;;;;;;;;;;;2105278;28;20305;-87
2022/12/22 04:40:16;;;;;;;;;;;;;;;;;;2105443;28;19923;-88
2022/12/22 04:41:16;;;;;;;;;;;;;;;;;;2097029;28;19917;-86
2022/12/22 04:42:17;;;;;;;;;;;;;;;;;;2096848;28;20314;-86
2022/12/22 04:43:17;;;;;;;;;;;;;;;;;;2105443;28;19912;-88
2022/12/22 04:44:17;;;;;;;;;;;;;;;;;;2096969;28;19919;-89
2022/12/22 04:45:17;;;;;;;;;;;;;;;;;;2105406;28;20373;-88
2022/12/22 04:46:18;;;;;;;;;;;;;;;;;;2105377;28;20007;-88
2022/12/22 04:47:18;;;;;;;;;;;;;;;;;;2096998;28;19944;-88
2022/12/22 04:48:18;;;;;;;;;;;;;;;;;;2096860;28;20054;-88
2022/12/22 04:49:19;;;;;;;;;;;;;;;;;;2105423;28;20368;-88
2022/12/22 04:50:19;;;;;;;;;;;;;;;;;;2105284;28;20074;-86
2022/12/22 04:51:19;;;;;;;;;;;;;;;;;;2105342;28;19916;-86
2022/12/22 04:52:20;;;;;;;;;;;;;;;;;;2105251;28;19991;-86
2022/12/22 04:53:20;;;;;;;;;;;;;;;;;;2105300;28;19916;-87
2022/12/22 04:54:20;;;;;;;;;;;;;;;;;;2105240;28;19912;-85
2022/12/22 04:55:21;;;;;;;;;;;;;;;;;;2096894;28;19913;-86
2022/12/22 04:56:21;;;;;;;;;;;;;;;;;;2105242;28;19918;-87
2022/12/22 04:57:21;;;;;;;;;;;;;;;;;;2105249;28;19918;-87
2022/12/22 04:58:22;;;;;;;;;;;;;;;;;;2096860;28;19935;-88
2022/12/22 04:59:22;;;;;;;;;;;;;;;;;;2096888;28;19966;-87
2022/12/22 05:00:22;;;;;;;;;;;;;;;;;;2096883;28;19912;-86
2022/12/22 05:01:23;;;;;;;;;;;;;;;;;;2105158;28;20366;-87
2022/12/22 05:02:23;;;;;;;;;;;;;;;;;;2105091;28;20028;-87
2022/12/22 05:03:23;;;;;;;;;;;;;;;;;;2096967;28;20016;-88
2022/12/22 05:04:24;;;;;;;;;;;;;;;;;;2105112;28;20343;-87
2022/12/22 05:05:24;;;;;;;;;;;;;;;;;;2105246;28;20374;-86
2022/12/22 05:06:24;;;;;;;;;;;;;;;;;;2105263;28;19970;-87
2022/12/22 05:07:24;;;;;;;;;;;;;;;;;;2104897;28;19916;-87
2022/12/22 05:08:25;;;;;;;;;;;;;;;;;;2096752;28;19912;-87
2022/12/22 05:09:25;;;;;;;;;;;;;;;;;;2096619;28;19927;-86
2022/12/22 05:10:25;;;;;;;;;;;;;;;;;;2096696;28;20014;-86
2022/12/22 05:11:26;;;;;;;;;;;;;;;;;;2105049;28;19947;-87
2022/12/22 05:13:45;;;;;;;;;;;;;;;;;;2114428;28;20007;-87
2022/12/22 05:14:45;;;;;;;;;;;;;;;;;;2105347;28;20300;-87
2022/12/22 05:15:45;;;;;;;;;;;;;;;;;;2096793;28;19926;-88
2022/12/22 05:16:45;;;;;;;;;;;;;;;;;;2096988;28;20402;-88
2022/12/22 05:17:46;;;;;;;;;;;;;;;;;;2096973;28;20018;-86
2022/12/22 05:18:46;;;;;;;;;;;;;;;;;;2098636;28;20367;-87
2022/12/22 05:19:46;;;;;;;;;;;;;;;;;;1740632;28;10305799;-86
2022/12/22 05:20:47;;;;;;;;;;;;;;;;;;2108931;28;19941;-87
2022/12/22 05:21:47;;;;;;;;;;;;;;;;;;2105132;28;19965;-87
2022/12/22 05:22:47;;;;;;;;;;;;;;;;;;2105001;28;19912;-88
2022/12/22 05:23:48;;;;;;;;;;;;;;;;;;2096635;28;20007;-86
2022/12/22 05:24:49;;;;;;;;;;;;;;;;;;2096625;28;19912;-87
2022/12/22 05:25:49;;;;;;;;;;;;;;;;;;2096673;28;19912;-87
2022/12/22 05:26:49;;;;;;;;;;;;;;;;;;2105118;28;20244;-86
2022/12/22 05:27:50;;;;;;;;;;;;;;;;;;2105017;28;19912;-86
2022/12/22 05:28:51;;;;;;;;;;;;;;;;;;2105015;28;19923;-86
2022/12/22 05:29:51;;;;;;;;;;;;;;;;;;2096363;28;19923;-87
2022/12/22 05:30:52;;;;;;;;;;;;;;;;;;2096675;28;19919;-87
2022/12/22 05:31:52;;;;;;;;;;;;;;;;;;2104899;28;20013;-87
2022/12/22 05:32:54;;;;;;;;;;;;;;;;;;2105169;28;19912;-87
2022/12/22 05:33:54;;;;;;;;;;;;;;;;;;2105011;28;20664;-87
2022/12/22 05:34:54;;;;;;;;;;;;;;;;;;2105135;28;19912;-87
2022/12/22 05:35:54;;;;;;;;;;;;;;;;;;2114388;28;19919;-87
2022/12/22 05:36:55;;;;;;;;;;;;;;;;;;2105330;28;19912;-86
2022/12/22 05:37:55;;;;;;;;;;;;;;;;;;2105294;28;19920;-87
2022/12/22 05:38:55;;;;;;;;;;;;;;;;;;2114176;28;19911;-87
2022/12/22 05:39:56;;;;;;;;;;;;;;;;;;2114160;28;19951;-86
2022/12/22 05:40:57;;;;;;;;;;;;;;;;;;1810818;28;10000686;-87
2022/12/22 05:41:58;;;;;;;;;;;;;;;;;;2105075;28;19912;-87
2022/12/22 05:42:58;;;;;;;;;;;;;;;;;;2096954;28;19942;-87
2022/12/22 05:43:58;;;;;;;;;;;;;;;;;;2096762;28;20272;-86
2022/12/22 05:44:58;;;;;;;;;;;;;;;;;;2105038;28;19934;-86
2022/12/22 05:46:05;;;;;;;;;;;;;;;;;;1761091;28;10001922;-87
2022/12/22 05:47:05;;;;;;;;;;;;;;;;;;2105172;28;19919;-86
2022/12/22 05:48:06;;;;;;;;;;;;;;;;;;2096951;28;19935;-87
2022/12/22 05:49:06;;;;;;;;;;;;;;;;;;2105164;28;20445;-86
2022/12/22 05:50:07;;;;;;;;;;;;;;;;;;2104817;28;19923;-86
2022/12/22 05:51:08;;;;;;;;;;;;;;;;;;2096937;28;20250;-88
2022/12/22 05:52:08;;;;;;;;;;;;;;;;;;2105114;28;20007;-88
2022/12/22 05:53:09;;;;;;;;;;;;;;;;;;2107372;28;19919;-87
2022/12/22 05:54:10;;;;;;;;;;;;;;;;;;2115209;28;19934;-87
2022/12/22 05:55:10;;;;;;;;;;;;;;;;;;2107089;28;19909;-88
2022/12/22 05:56:11;;;;;;;;;;;;;;;;;;2114151;28;19912;-88
2022/12/22 05:57:11;;;;;;;;;;;;;;;;;;2115178;28;20358;-89
2022/12/22 05:58:11;;;;;;;;;;;;;;;;;;2119184;28;19916;-88
2022/12/22 05:59:11;;;;;;;;;;;;;;;;;;2106350;28;19912;-87
2022/12/22 06:00:13;;;;;;;;;;;;;;;;;;2097242;28;19913;-87
2022/12/22 06:01:13;;;;;;;;;;;;;;;;;;2105338;28;19912;-87
2022/12/22 06:02:14;;;;;;;;;;;;;;;;;;2105228;28;19912;-87
2022/12/22 06:03:14;;;;;;;;;;;;;;;;;;2114350;28;20286;-88
2022/12/22 06:04:14;;;;;;;;;;;;;;;;;;2105267;28;19982;-89
2022/12/22 06:05:15;;;;;;;;;;;;;;;;;;2105138;28;19953;-88
2022/12/22 06:06:15;;;;;;;;;;;;;;;;;;2114504;28;19915;-88
2022/12/22 06:07:15;;;;;;;;;;;;;;;;;;2105003;28;19916;-88
2022/12/22 06:08:15;;;;;;;;;;;;;;;;;;1744300;28;10316430;-87
2022/12/22 06:09:16;;;;;;;;;;;;;;;;;;2114135;28;19919;-87
2022/12/22 06:10:16;;;;;;;;;;;;;;;;;;2114192;28;19912;-86
2022/12/22 06:11:18;;;;;;;;;;;;;;;;;;2104990;28;20325;-86
2022/12/22 06:12:18;;;;;;;;;;;;;;;;;;2097153;28;19970;-88
2022/12/22 06:13:18;;;;;;;;;;;;;;;;;;2098422;28;19913;-88
2022/12/22 06:14:18;;;;;;;;;;;;;;;;;;2115305;28;19966;-87
2022/12/22 06:15:19;;;;;;;;;;;;;;;;;;2124541;28;19912;-88
2022/12/22 06:16:19;;;;;;;;;;;;;;;;;;2114997;28;19920;-87
2022/12/22 06:17:19;;;;;;;;;;;;;;;;;;2109986;28;19977;-88
2022/12/22 06:18:20;;;;;;;;;;;;;;;;;;2107708;28;19959;-88
2022/12/22 06:19:20;;;;;;;;;;;;;;;;;;2105237;28;19923;-87
2022/12/22 06:20:20;;;;;;;;;;;;;;;;;;2096520;28;20303;-88
2022/12/22 06:21:21;;;;;;;;;;;;;;;;;;2096554;28;19912;-88
2022/12/22 06:22:21;;;;;;;;;;;;;;;;;;2104568;28;19916;-88
2022/12/22 06:23:21;;;;;;;;;;;;;;;;;;2105134;28;20440;-88
2022/12/22 06:24:22;;;;;;;;;;;;;;;;;;2104927;28;19948;-88
2022/12/22 06:25:22;;;;;;;;;;;;;;;;;;2114328;28;20434;-88
2022/12/22 06:26:25;;;;;;;;;;;;;;;;;;2105097;28;19916;-88
2022/12/22 06:27:25;;;;;;;;;;;;;;;;;;2096640;28;19978;-89
2022/12/22 06:28:26;;;;;;;;;;;;;;;;;;2105001;28;19912;-88
2022/12/22 06:29:28;;;;;;;;;;;;;;;;;;2104964;28;19963;-87
2022/12/22 06:30:29;;;;;;;;;;;;;;;;;;2107110;28;20012;-87
2022/12/22 06:31:29;;;;;;;;;;;;;;;;;;2105636;28;19993;-87
2022/12/22 06:32:29;;;;;;;;;;;;;;;;;;2113190;28;19963;-88
2022/12/22 06:33:30;;;;;;;;;;;;;;;;;;2114174;28;20382;-88
2022/12/22 06:34:30;;;;;;;;;;;;;;;;;;2114149;28;19981;-88
2022/12/22 06:35:30;;;;;;;;;;;;;;;;;;2104494;28;19916;-88
2022/12/22 06:36:30;;;;;;;;;;;;;;;;;;2104774;28;20374;-88
2022/12/22 06:37:31;;;;;;;;;;;;;;;;;;2113668;28;19911;-88
2022/12/22 06:38:32;;;;;;;;;;;;;;;;;;2113627;28;19933;-88
2022/12/22 06:39:32;;;;;;;;;;;;;;;;;;2113705;28;19912;-89
2022/12/22 06:40:33;;;;;;;;;;;;;;;;;;2104030;28;20168;-88
2022/12/22 06:43:07;;;;;;;;;;;;;;;;;;2098914;28;19921;-88
2022/12/22 06:44:07;;;;;;;;;;;;;;;;;;2109780;28;19972;-88
2022/12/22 06:45:07;;;;;;;;;;;;;;;;;;2104613;28;19998;-88
2022/12/22 06:46:08;;;;;;;;;;;;;;;;;;2096535;28;19968;-88
2022/12/22 06:47:08;;;;;;;;;;;;;;;;;;2104832;28;20386;-87
2022/12/22 06:48:10;;;;;;;;;;;;;;;;;;2104680;28;19912;-88
2022/12/22 06:49:10;;;;;;;;;;;;;;;;;;2096602;28;19954;-86
2022/12/22 06:50:10;;;;;;;;;;;;;;;;;;2104847;28;19963;-88
2022/12/22 06:51:10;;;;;;;;;;;;;;;;;;2104911;28;19989;-87
2022/12/22 06:52:11;;;;;;;;;;;;;;;;;;2104824;28;19912;-86
2022/12/22 06:53:11;;;;;;;;;;;;;;;;;;2095759;28;20007;-86
2022/12/22 06:54:12;;;;;;;;;;;;;;;;;;2104645;28;20346;-88
2022/12/22 06:55:12;;;;;;;;;;;;;;;;;;2113698;28;19950;-88
2022/12/22 06:56:13;;;;;;;;;;;;;;;;;;2113362;28;19912;-88
2022/12/22 06:57:13;;;;;;;;;;;;;;;;;;2113811;28;19912;-87
2022/12/22 06:58:13;;;;;;;;;;;;;;;;;;2104705;28;20017;-87
2022/12/22 06:59:14;;;;;;;;;;;;;;;;;;2104941;28;19919;-88
2022/12/22 07:00:14;;;;;;;;;;;;;;;;;;2104429;28;19916;-88
2022/12/22 07:01:14;;;;;;;;;;;;;;;;;;2104949;28;19912;-87
2022/12/22 07:02:14;;;;;;;;;;;;;;;;;;2105568;28;19920;-88
2022/12/22 07:03:15;;;;;;;;;;;;;;;;;;2098185;28;19967;-89
2022/12/22 07:04:19;;;;;;;;;;;;;;;;;;2107031;28;20007;-89
2022/12/22 07:05:19;;;;;;;;;;;;;;;;;;2107242;28;19916;-89
2022/12/22 07:06:20;;;;;;;;;;;;;;;;;;2107127;28;19955;-88
2022/12/22 07:07:20;;;;;;;;;;;;;;;;;;2115620;28;19916;-86
2022/12/22 07:08:20;;;;;;;;;;;;;;;;;;2115240;28;19916;-88
2022/12/22 07:09:20;;;;;;;;;;;;;;;;;;2115322;28;19966;-89
2022/12/22 07:10:56;;;;;;;;;;;;;;;;;;2106175;28;19993;-87
2022/12/22 07:11:41;;;;;;;;;;;;;;;;;;2109381;28;19924;-89
2022/12/22 07:12:41;;;;;;;;;;;;;;;;;;2115957;28;20294;-88
2022/12/22 07:13:42;;;;;;;;;;;;;;;;;;2116453;28;20378;-88
2022/12/22 07:14:42;;;;;;;;;;;;;;;;;;2107800;28;19999;-87
2022/12/22 07:15:42;;;;;;;;;;;;;;;;;;2098801;28;20217;-88
2022/12/22 07:16:43;;;;;;;;;;;;;;;;;;2106994;28;19912;-88
2022/12/22 07:17:43;;;;;;;;;;;;;;;;;;2106452;28;19912;-89
2022/12/22 07:18:43;;;;;;;;;;;;;;;;;;2106349;28;20414;-87
2022/12/22 07:19:43;;;;;;;;;;;;;;;;;;2115366;28;19912;-87
2022/12/22 07:20:44;;;;;;;;;;;;;;;;;;2106090;28;19916;-89
2022/12/22 07:21:46;;;;;;;;;;;;;;;;;;2097883;28;19913;-89
2022/12/22 07:22:47;;;;;;;;;;;;;;;;;;2098040;28;19925;-88
2022/12/22 07:23:47;;;;;;;;;;;;;;;;;;2097896;28;20395;-89
2022/12/22 07:24:48;;;;;;;;;;;;;;;;;;2097688;28;20011;-89
2022/12/22 07:25:49;;;;;;;;;;;;;;;;;;2106275;28;19913;-89
2022/12/22 07:26:49;;;;;;;;;;;;;;;;;;2106240;28;20448;-88
2022/12/22 07:27:49;;;;;;;;;;;;;;;;;;2098161;28;20061;-88
2022/12/22 07:28:50;;;;;;;;;;;;;;;;;;2105908;28;19955;-88
2022/12/22 07:29:50;;;;;;;;;;;;;;;;;;2106243;28;20023;-88
2022/12/22 07:30:50;;;;;;;;;;;;;;;;;;2106183;28;19941;-88
2022/12/22 07:31:51;;;;;;;;;;;;;;;;;;2106076;28;20312;-87
2022/12/22 07:32:51;;;;;;;;;;;;;;;;;;2106057;28;19951;-88
2022/12/22 07:33:51;;;;;;;;;;;;;;;;;;1754500;28;10001139;-87
2022/12/22 07:34:52;;;;;;;;;;;;;;;;;;2097589;28;20465;-89
2022/12/22 07:36:00;;;;;;;;;;;;;;;;;;2105910;28;19912;-88
2022/12/22 07:37:01;;;;;;;;;;;;;;;;;;2115537;28;19969;-88
2022/12/22 07:38:02;;;;;;;;;;;;;;;;;;2115184;28;19916;-89
2022/12/22 07:39:02;;;;;;;;;;;;;;;;;;2105948;28;20068;-88
2022/12/22 07:40:02;;;;;;;;;;;;;;;;;;2105865;28;19968;-89
2022/12/22 07:42:43;;;;;;;;;;;;;;;;;;2114882;28;20308;-88
2022/12/22 07:43:43;;;;;;;;;;;;;;;;;;2115335;28;20350;-88
2022/12/22 07:44:43;;;;;;;;;;;;;;;;;;2115077;28;19912;-89
2022/12/22 07:45:44;;;;;;;;;;;;;;;;;;2115140;28;20274;-89
2022/12/22 07:46:44;;;;;;;;;;;;;;;;;;2114937;28;19915;-88
2022/12/22 07:47:45;;;;;;;;;;;;;;;;;;2105752;28;19912;-88
2022/12/22 07:51:23;;;;;;;;;;;;;;;;;;2115150;28;19947;-89
2022/12/22 07:52:25;;;;;;;;;;;;;;;;;;2105837;28;19912;-89
2022/12/22 07:53:26;;;;;;;;;;;;;;;;;;1754316;28;10001889;-88
2022/12/22 07:54:26;;;;;;;;;;;;;;;;;;2114348;28;19915;-89
2022/12/22 07:55:28;;;;;;;;;;;;;;;;;;2114934;28;19938;-89
2022/12/22 07:56:28;;;;;;;;;;;;;;;;;;2114838;28;20381;-89
2022/12/22 07:57:29;;;;;;;;;;;;;;;;;;2114858;28;19911;-88
2022/12/22 07:58:29;;;;;;;;;;;;;;;;;;2114818;28;19975;-89
2022/12/22 07:59:29;;;;;;;;;;;;;;;;;;2115229;28;20378;-88
2022/12/22 08:00:29;;;;;;;;;;;;;;;;;;2115111;28;20299;-89
2022/12/22 08:01:30;;;;;;;;;;;;;;;;;;2105891;28;19927;-89
2022/12/22 08:02:30;;;;;;;;;;;;;;;;;;2097689;28;20398;-88
2022/12/22 08:03:30;;;;;;;;;;;;;;;;;;2106073;28;20250;-88
2022/12/22 08:04:30;;;;;;;;;;;;;;;;;;2115049;28;19966;-87
2022/12/22 08:05:31;;;;;;;;;;;;;;;;;;2115104;28;20015;-88
2022/12/22 08:06:31;;;;;;;;;;;;;;;;;;2116287;28;19927;-88
2022/12/22 08:07:32;;;;;;;;;;;;;;;;;;2107250;28;19924;-88
2022/12/22 08:08:32;;;;;;;;;;;;;;;;;;2105755;28;20074;-88
2022/12/22 08:09:33;;;;;;;;;;;;;;;;;;2114941;28;20369;-88
2022/12/22 08:10:33;;;;;;;;;;;;;;;;;;2105854;28;20303;-88
2022/12/22 08:11:33;;;;;;;;;;;;;;;;;;2105963;28;19920;-88
2022/12/22 08:12:34;;;;;;;;;;;;;;;;;;2114768;28;19912;-87
2022/12/22 08:13:34;;;;;;;;;;;;;;;;;;2105266;28;20287;-88
2022/12/22 08:14:35;;;;;;;;;;;;;;;;;;2105692;28;20311;-87
2022/12/22 08:15:36;;;;;;;;;;;;;;;;;;2105762;28;20041;-89
2022/12/22 08:16:37;;;;;;;;;;;;;;;;;;2106048;28;19912;-89
2022/12/22 08:17:38;;;;;;;;;;;;;;;;;;2097264;28;19948;-89
2022/12/22 08:18:38;;;;;;;;;;;;;;;;;;2105922;28;19995;-89
2022/12/22 08:19:39;;;;;;;;;;;;;;;;;;2114862;28;20322;-90
2022/12/22 08:20:39;;;;;;;;;;;;;;;;;;2105442;28;20342;-87
2022/12/22 08:21:39;;;;;;;;;;;;;;;;;;2097572;28;19986;-88
2022/12/22 08:22:39;;;;;;;;;;;;;;;;;;2105716;28;19981;-88
2022/12/22 08:23:40;;;;;;;;;;;;;;;;;;2105841;28;19953;-88
2022/12/22 08:24:40;;;;;;;;;;;;;;;;;;2114953;28;19992;-88
2022/12/22 08:25:40;;;;;;;;;;;;;;;;;;2105913;28;19916;-88
2022/12/22 08:26:44;;;;;;;;;;;;;;;;;;2097435;28;20322;-88
2022/12/22 08:27:47;;;;;;;;;;;;;;;;;;2105595;28;20313;-88
2022/12/22 08:28:55;;;;;;;;;;;;;;;;;;2106009;28;20399;-88
2022/12/22 08:29:59;;;;;;;;;;;;;;;;;;2105572;28;19912;-88
2022/12/22 08:31:00;;;;;;;;;;;;;;;;;;2106126;28;19919;-89
2022/12/22 08:32:01;;;;;;;;;;;;;;;;;;2105747;28;19923;-88
2022/12/22 08:33:01;;;;;;;;;;;;;;;;;;2097410;28;19917;-88
2022/12/22 08:34:03;;;;;;;;;;;;;;;;;;2105776;28;19912;-88
2022/12/22 08:35:04;;;;;;;;;;;;;;;;;;2114500;28;20059;-88
2022/12/22 08:36:06;;;;;;;;;;;;;;;;;;2116155;28;19916;-88
2022/12/22 08:37:09;;;;;;;;;;;;;;;;;;2116329;28;19958;-88
2022/12/22 08:38:10;;;;;;;;;;;;;;;;;;2111835;28;19912;-88
2022/12/22 08:39:12;;;;;;;;;;;;;;;;;;2109659;28;20394;-88
2022/12/22 08:40:18;;;;;;;;;;;;;;;;;;2098043;28;20330;-88
2022/12/22 08:41:48;;;;;;;;;;;;;;;;;;2106882;28;19920;-88
2022/12/22 08:42:39;;;;;;;;;;;;;;;;;;2115197;28;20333;-88
2022/12/22 08:43:39;;;;;;;;;;;;;;;;;;2114848;28;19912;-88
2022/12/22 08:44:39;;;;;;;;;;;;;;;;;;2105672;28;20015;-88
2022/12/22 08:45:41;;;;;;;;;;;;;;;;;;2106028;28;19939;-89
2022/12/22 08:46:41;;;;;;;;;;;;;;;;;;2105848;28;20405;-88
2022/12/22 08:47:41;;;;;;;;;;;;;;;;;;2105567;28;19919;-86
2022/12/22 08:48:42;;;;;;;;;;;;;;;;;;2105619;28;19912;-87
2022/12/22 08:49:42;;;;;;;;;;;;;;;;;;2105589;28;19970;-87
2022/12/22 08:50:42;;;;;;;;;;;;;;;;;;2097388;28;19917;-87
2022/12/22 08:51:43;;;;;;;;;;;;;;;;;;2097185;28;19913;-88
2022/12/22 08:52:43;;;;;;;;;;;;;;;;;;2105759;28;20355;-88
2022/12/22 08:53:44;;;;;;;;;;;;;;;;;;2114824;28;20317;-88
2022/12/22 08:54:44;;;;;;;;;;;;;;;;;;2114314;28;19970;-88
2022/12/22 08:55:53;;;;;;;;;;;;;;;;;;2103516;28;19912;-88
2022/12/22 08:56:53;;;;;;;;;;;;;;;;;;2111514;28;19916;-88
2022/12/22 08:57:53;;;;;;;;;;;;;;;;;;2104418;28;20011;-88
2022/12/22 08:58:54;;;;;;;;;;;;;;;;;;2113159;28;19912;-88
2022/12/22 08:59:54;;;;;;;;;;;;;;;;;;2110881;28;20203;-88
2022/12/22 09:00:54;;;;;;;;;;;;;;;;;;2097976;28;20371;-88
2022/12/22 09:02:04;;;;;;;;;;;;;;;;;;2105689;28;19959;-88
2022/12/22 09:03:04;;;;;;;;;;;;;;;;;;2105098;28;19916;-88
2022/12/22 09:04:06;;;;;;;;;;;;;;;;;;2105950;28;19912;-88
2022/12/22 09:05:06;;;;;;;;;;;;;;;;;;2114860;28;20336;-89
2022/12/22 09:06:06;;;;;;;;;;;;;;;;;;2105602;28;20133;-89
2022/12/22 09:07:07;;;;;;;;;;;;;;;;;;2097213;28;19917;-89
2022/12/22 09:08:07;;;;;;;;;;;;;;;;;;2106990;28;19916;-88
2022/12/22 09:09:09;;;;;;;;;;;;;;;;;;2106460;28;19930;-89
2022/12/22 09:10:09;;;;;;;;;;;;;;;;;;2099642;28;20404;-89
2022/12/22 09:11:09;;;;;;;;;;;;;;;;;;2098773;28;19913;-89
2022/12/22 09:12:10;;;;;;;;;;;;;;;;;;2097776;28;19912;-89
2022/12/22 09:13:10;;;;;;;;;;;;;;;;;;2105911;28;20473;-89
2022/12/22 09:14:11;;;;;;;;;;;;;;;;;;2105752;28;20436;-89
2022/12/22 09:15:13;;;;;;;;;;;;;;;;;;2105802;28;20658;-89
2022/12/22 09:16:13;;;;;;;;;;;;;;;;;;2114801;28;19934;-89
2022/12/22 09:17:13;;;;;;;;;;;;;;;;;;2114594;28;19990;-89
2022/12/22 09:18:13;;;;;;;;;;;;;;;;;;2105363;28;20021;-89
2022/12/22 09:19:14;;;;;;;;;;;;;;;;;;2097223;28;19912;-89
2022/12/22 09:20:14;;;;;;;;;;;;;;;;;;2097135;28;20265;-90
2022/12/22 09:21:15;;;;;;;;;;;;;;;;;;2105322;28;19954;-89
2022/12/22 09:22:15;;;;;;;;;;;;;;;;;;2097130;28;19912;-89
2022/12/22 09:23:16;;;;;;;;;;;;;;;;;;2105662;28;19912;-89
2022/12/22 09:24:16;;;;;;;;;;;;;;;;;;2104916;28;19967;-89
2022/12/22 09:25:17;;;;;;;;;;;;;;;;;;2104808;28;19929;-89
2022/12/22 09:26:18;;;;;;;;;;;;;;;;;;2114697;28;19916;-89
2022/12/22 09:27:18;;;;;;;;;;;;;;;;;;2114852;28;19911;-89
2022/12/22 09:28:18;;;;;;;;;;;;;;;;;;2114729;28;19916;-89
2022/12/22 09:29:19;;;;;;;;;;;;;;;;;;2114735;28;20254;-88
2022/12/22 09:30:20;;;;;;;;;;;;;;;;;;2114606;28;19943;-88
2022/12/22 09:31:21;;;;;;;;;;;;;;;;;;2114718;28;19955;-89
2022/12/22 09:32:21;;;;;;;;;;;;;;;;;;2114715;28;19916;-88
2022/12/22 09:33:21;;;;;;;;;;;;;;;;;;2114611;28;19935;-88
2022/12/22 09:34:22;;;;;;;;;;;;;;;;;;2105463;28;19912;-89
2022/12/22 09:35:22;;;;;;;;;;;;;;;;;;2097085;28;19966;-89
2022/12/22 09:36:23;;;;;;;;;;;;;;;;;;2097160;28;20382;-89
2022/12/22 09:37:24;;;;;;;;;;;;;;;;;;2105810;28;20412;-89
2022/12/22 09:38:27;;;;;;;;;;;;;;;;;;2105323;28;19953;-88
2022/12/22 09:39:27;;;;;;;;;;;;;;;;;;2097201;28;19970;-89
2022/12/22 09:40:28;;;;;;;;;;;;;;;;;;2105160;28;20406;-89
2022/12/22 09:41:34;;;;;;;;;;;;;;;;;;2114427;28;19914;-89
2022/12/22 09:42:34;;;;;;;;;;;;;;;;;;2114529;28;19942;-89
2022/12/22 09:43:35;;;;;;;;;;;;;;;;;;2114354;28;20258;-89
2022/12/22 09:44:37;;;;;;;;;;;;;;;;;;2114521;28;20381;-90
2022/12/22 09:45:37;;;;;;;;;;;;;;;;;;2104993;28;19912;-90
2022/12/22 09:46:38;;;;;;;;;;;;;;;;;;2096752;28;20373;-90
2022/12/22 09:47:40;;;;;;;;;;;;;;;;;;2096843;28;19920;-91
2022/12/22 09:48:40;;;;;;;;;;;;;;;;;;2097129;28;20199;-90
2022/12/22 09:49:40;;;;;;;;;;;;;;;;;;2105515;28;19950;-90
2022/12/22 09:50:40;;;;;;;;;;;;;;;;;;2105244;28;19964;-89
2022/12/22 09:51:43;;;;;;;;;;;;;;;;;;2096940;28;19924;-90
2022/12/22 09:52:47;;;;;;;;;;;;;;;;;;2105306;28;19934;-91
2022/12/22 09:53:51;;;;;;;;;;;;;;;;;;2097438;28;19966;-90
2022/12/22 09:54:51;;;;;;;;;;;;;;;;;;2097067;28;20307;-90
2022/12/22 09:55:52;;;;;;;;;;;;;;;;;;2105426;28;19959;-91
2022/12/22 09:56:52;;;;;;;;;;;;;;;;;;2105353;28;19981;-91
2022/12/22 09:57:53;;;;;;;;;;;;;;;;;;2105126;28;19931;-91
2022/12/22 09:58:53;;;;;;;;;;;;;;;;;;2096845;28;20340;-92
2022/12/22 09:59:53;;;;;;;;;;;;;;;;;;2097011;28;19952;-92
2022/12/22 10:00:58;;;;;;;;;;;;;;;;;;2096878;28;19924;-91
2022/12/22 10:02:13;;;;;;;;;;;;;;;;;;2097725;28;19912;-91
2022/12/22 10:03:16;;;;;;;;;;;;;;;;;;2107536;28;19942;-91
2022/12/22 10:04:37;;;;;;;;;;;;;;;;;;2114410;28;19912;-92
2022/12/22 10:05:40;;;;;;;;;;;;;;;;;;1753662;28;10275238;-90
2022/12/22 10:06:49;;;;;;;;;;;;;;;;;;2111710;28;20285;-91
2022/12/22 10:07:50;;;;;;;;;;;;;;;;;;2101572;28;20084;-91
2022/12/22 10:08:52;;;;;;;;;;;;;;;;;;2097489;28;19924;-92
2022/12/22 10:09:52;;;;;;;;;;;;;;;;;;2097132;28;19919;-91
2022/12/22 10:10:53;;;;;;;;;;;;;;;;;;1403077;28;10001492;-91
2022/12/22 10:11:55;;;;;;;;;;;;;;;;;;2113577;28;19912;-90
2022/12/22 10:12:58;;;;;;;;;;;;;;;;;;2105184;28;19918;-89
2022/12/22 10:13:59;;;;;;;;;;;;;;;;;;2104887;28;20381;-91
2022/12/22 10:14:59;;;;;;;;;;;;;;;;;;2105447;28;19919;-91
2022/12/22 10:15:59;;;;;;;;;;;;;;;;;;2105206;28;19912;-90
2022/12/22 10:17:18;;;;;;;;;;;;;;;;;;2096461;28;20390;-90
2022/12/22 10:18:20;;;;;;;;;;;;;;;;;;2108168;28;19999;-91
2022/12/22 10:19:20;;;;;;;;;;;;;;;;;;2114209;28;20429;-90
2022/12/22 10:20:20;;;;;;;;;;;;;;;;;;2105091;28;20071;-90
2022/12/22 10:21:22;;;;;;;;;;;;;;;;;;2105201;28;19984;-90
2022/12/22 10:22:33;;;;;;;;;;;;;;;;;;2114515;28;19920;-90
2022/12/22 10:23:37;;;;;;;;;;;;;;;;;;2104848;28;19912;-88
2022/12/22 10:24:37;;;;;;;;;;;;;;;;;;2097105;28;20225;-90
2022/12/22 10:25:42;;;;;;;;;;;;;;;;;;2105473;28;20041;-91
2022/12/22 10:26:42;;;;;;;;;;;;;;;;;;2097007;28;19916;-91
2022/12/22 10:27:43;;;;;;;;;;;;;;;;;;2105342;28;19912;-92
2022/12/22 10:28:48;;;;;;;;;;;;;;;;;;2114261;28;19912;-92
2022/12/22 10:29:48;;;;;;;;;;;;;;;;;;2117132;28;19968;-91
2022/12/22 10:30:49;;;;;;;;;;;;;;;;;;2114424;28;20427;-92
2022/12/22 10:31:59;;;;;;;;;;;;;;;;;;2105271;28;20024;-92
2022/12/22 10:33:13;;;;;;;;;;;;;;;;;;2098233;28;19950;-92
2022/12/22 10:34:16;;;;;;;;;;;;;;;;;;2104901;28;20357;-92
2022/12/22 10:35:16;;;;;;;;;;;;;;;;;;2097275;28;19913;-91
2022/12/22 10:36:25;;;;;;;;;;;;;;;;;;2105260;28;19969;-91